Weather reports worldwide

Advertisment
Monte Terminillo, Italy (16219): temperature & dewpoint: 15.05.2019 05:00:00 - 21.05.2019 05:00:00 (CEST)Monte Terminillo, Italy (16219): wind speed & gusts: 15.05.2019 05:00:00 - 21.05.2019 05:00:00 (CEST)Monte Terminillo, Italy (16219): wind direction: 15.05.2019 05:00:00 - 21.05.2019 05:00:00 (CEST)Monte Terminillo, Italy (16219): sunshine duration: 15.05.2019 05:00:00 - 21.05.2019 05:00:00 (CEST)
Date & Time tt [°C] td [°C] ff [km/h] ff [kn] fx [km/h] fx [kn] dd sd [min]
21.05.2019 05:00:00 2,0 2,0 15 8 - - N -
21.05.2019 04:00:00 1,8 1,8 13 7 - - N 0
21.05.2019 03:00:00 1,6 1,6 11 6 - - N -
21.05.2019 02:00:00 1,3 1,3 5 3 - - N -
21.05.2019 01:00:00 1,7 1,7 5 3 - - N -
21.05.2019 00:00:00 1,2 1,2 5 3 - - N 0
20.05.2019 23:00:00 1,6 1,6 8 4 - - N 0
20.05.2019 22:00:00 1,3 1,3 8 4 - - N 0
20.05.2019 21:00:00 1,7 1,7 13 7 - - N -
20.05.2019 20:00:00 1,5 1,5 9 5 - - N -
20.05.2019 19:00:00 1,6 1,6 4 2 - - N 0
20.05.2019 18:00:00 1,8 1,8 11 6 - - N 0
20.05.2019 17:00:00 1,6 1,5 9 5 - - N -
20.05.2019 16:00:00 2,2 2,2 11 6 - - N -
20.05.2019 15:00:00 1,1 1,1 8 4 - - N -
20.05.2019 14:00:00 0,5 0,5 9 5 - - N 0
20.05.2019 13:00:00 1,6 1,6 9 5 - - N -
20.05.2019 12:00:00 1,5 1,4 5 3 - - N 0
20.05.2019 11:00:00 1,0 1,0 11 6 - - N -
20.05.2019 10:00:00 0,3 0,3 8 4 - - N 0
20.05.2019 09:00:00 0,1 0,1 15 8 - - N -
20.05.2019 08:00:00 0,0 0,0 9 5 - - N 0
20.05.2019 07:00:00 -0,1 -0,1 11 6 - - N -
20.05.2019 06:00:00 -0,4 -0,4 9 5 - - N 0
20.05.2019 05:00:00 -0,2 -0,2 4 2 - - N -
20.05.2019 04:00:00 -0,3 -0,3 15 8 - - W 0
20.05.2019 03:00:00 0,5 0,5 26 14 - - WNW 0
20.05.2019 02:00:00 1,0 1,0 5 3 - - N -
20.05.2019 01:00:00 1,0 1,0 8 4 - - N -
20.05.2019 00:00:00 1,1 1,1 13 7 - - N 0
19.05.2019 23:00:00 1,1 1,1 11 6 - - N -
19.05.2019 22:00:00 1,2 1,2 16 9 - - N 0
19.05.2019 21:00:00 0,3 0,3 13 7 - - N 0
19.05.2019 20:00:00 1,7 1,7 18 10 - - N -
19.05.2019 19:00:00 1,2 1,2 15 8 - - W 0
19.05.2019 18:00:00 2,2 2,2 21 11 - - WNW -
19.05.2019 17:00:00 2,1 2,1 21 11 - - WNW -
19.05.2019 16:00:00 2,5 2,5 11 6 - - N -
19.05.2019 15:00:00 1,4 1,4 8 4 - - N 0
19.05.2019 14:00:00 3,2 3,2 16 9 - - W -
19.05.2019 13:00:00 2,5 2,5 5 3 - - N -
19.05.2019 12:00:00 3,4 3,4 5 3 - - N -
19.05.2019 11:00:00 2,5 2,5 8 4 - - N -
19.05.2019 10:00:00 2,9 2,9 8 4 - - N -
19.05.2019 09:00:00 2,7 2,7 9 5 - - S -
19.05.2019 08:00:00 2,6 2,6 11 6 - - SSW -
19.05.2019 07:00:00 2,7 2,7 11 6 - - S -
19.05.2019 06:00:00 2,9 2,9 8 4 - - N 0
19.05.2019 05:00:00 2,5 2,5 9 5 - - S -
19.05.2019 04:00:00 3,0 3,0 15 8 - - S 0
19.05.2019 03:00:00 3,3 3,3 16 9 - - SSW -
19.05.2019 02:00:00 3,5 3,5 9 5 - - N -
19.05.2019 01:00:00 3,7 3,7 4 2 - - N 0
19.05.2019 00:00:00 3,6 3,6 11 6 - - N -
18.05.2019 23:00:00 3,8 3,8 5 3 - - N -
18.05.2019 22:00:00 4,1 4,1 15 8 - - N 0
18.05.2019 21:00:00 4,1 4,1 4 2 29 16 N 0
18.05.2019 20:00:00 3,9 3,9 15 8 - - N -
18.05.2019 19:00:00 4,0 4,0 9 5 - - N -
18.05.2019 18:00:00 3,5 3,5 9 5 - - N -
18.05.2019 17:00:00 3,9 3,9 4 2 - - N 0
18.05.2019 16:00:00 3,7 3,7 26 14 - - S -
18.05.2019 15:00:00 3,7 3,7 24 13 - - SSW -
18.05.2019 14:00:00 3,7 3,7 28 15 - - SSW -
18.05.2019 13:00:00 3,2 3,2 28 15 - - S -
18.05.2019 12:00:00 3,0 3,0 28 15 - - S -
18.05.2019 11:00:00 3,1 3,1 29 16 - - SSW -
18.05.2019 10:00:00 3,6 3,6 37 20 - - S -
18.05.2019 09:00:00 3,4 3,2 39 21 - - SSW -
18.05.2019 08:00:00 3,0 3,0 35 19 - - SSE -
18.05.2019 07:00:00 2,7 2,7 46 25 - - SSE 0
18.05.2019 06:00:00 2,2 2,2 37 20 - - SSE -
18.05.2019 05:00:00 2,2 1,8 44 24 - - SE 0
18.05.2019 04:00:00 2,7 1,1 37 20 - - SSE 0
18.05.2019 03:00:00 3,0 1,0 37 20 - - SSE 0
18.05.2019 02:00:00 3,0 2,6 28 15 - - SSE 0
18.05.2019 01:00:00 3,9 3,9 29 16 - - SE 0
18.05.2019 00:00:00 4,2 4,2 29 16 - - SE 0
17.05.2019 23:00:00 4,8 4,8 29 16 - - ESE 0
17.05.2019 22:00:00 4,9 4,9 34 18 - - ESE 0
17.05.2019 21:00:00 5,4 5,1 5 3 - - S -
17.05.2019 20:00:00 5,9 5,3 8 4 - - N 0
17.05.2019 19:00:00 6,5 5,2 4 2 - - N 0
17.05.2019 18:00:00 6,2 5,2 5 3 - - N -
17.05.2019 17:00:00 6,0 5,2 5 3 - - - -
17.05.2019 16:00:00 6,0 5,1 4 2 - - N -
17.05.2019 15:00:00 5,8 5,2 5 3 - - N -
17.05.2019 14:00:00 - - - - - - - -
17.05.2019 13:00:00 7,9 3,2 8 4 - - N -
17.05.2019 12:00:00 5,4 2,5 8 4 - - N -
17.05.2019 11:00:00 5,6 2,4 8 4 - - N -
17.05.2019 10:00:00 5,8 1,0 11 6 - - N -
17.05.2019 09:00:00 5,0 2,7 9 5 - - N 54
17.05.2019 08:00:00 2,9 2,4 15 8 - - SE -
17.05.2019 07:00:00 2,4 0,1 8 4 - - ESE -
17.05.2019 06:00:00 2,5 0,5 4 2 - - W -
17.05.2019 05:00:00 2,7 2,7 9 5 - - WNW -
17.05.2019 04:00:00 2,7 2,6 9 5 - - WNW -
17.05.2019 03:00:00 2,7 2,3 9 5 - - NW -
17.05.2019 02:00:00 2,7 2,2 16 9 - - NW -
17.05.2019 01:00:00 3,0 2,4 11 6 - - NW -
17.05.2019 00:00:00 2,9 2,3 8 4 - - N 0
16.05.2019 23:00:00 3,5 3,2 11 6 - - N -
16.05.2019 22:00:00 3,7 3,7 11 6 - - NNW -
16.05.2019 21:00:00 3,7 2,9 13 7 - - NW -
16.05.2019 20:00:00 4,1 3,1 16 9 - - NW 0
16.05.2019 19:00:00 4,5 3,7 21 11 - - WNW -
16.05.2019 18:00:00 5,1 3,0 11 6 - - NW 0
16.05.2019 17:00:00 5,0 2,0 8 4 - - N 0
16.05.2019 16:00:00 5,0 2,3 16 9 - - NNW -
16.05.2019 15:00:00 5,3 2,1 8 4 - - WNW -
16.05.2019 14:00:00 4,7 2,5 4 2 - - N -
16.05.2019 13:00:00 - - - - - - - -
16.05.2019 12:00:00 2,3 0,8 11 6 - - N -
16.05.2019 11:00:00 2,8 0,2 18 10 - - ESE -
16.05.2019 10:00:00 0,9 -0,1 16 9 - - ESE -
16.05.2019 09:00:00 -0,1 -0,4 26 14 - - E 53
16.05.2019 08:00:00 -1,0 -1,1 34 18 - - ESE 24
16.05.2019 07:00:00 -1,4 -1,5 37 20 - - E 12
16.05.2019 06:00:00 -1,5 -1,5 34 18 - - E 0
16.05.2019 05:00:00 -1,2 -1,2 39 21 - - E 0
16.05.2019 04:00:00 -1,3 -1,3 28 15 - - ESE 0
16.05.2019 03:00:00 -1,2 -1,2 31 17 - - N 0
16.05.2019 02:00:00 -1,3 -1,3 50 27 - - E 0
16.05.2019 01:00:00 -1,0 -1,0 41 22 - - ESE 0
16.05.2019 00:00:00 -1,2 -1,3 39 21 - - E -
15.05.2019 23:00:00 -1,6 -1,6 41 22 - - E 0
15.05.2019 22:00:00 -1,1 -1,1 42 23 - - E 0
15.05.2019 21:00:00 -1,2 -1,2 39 21 - - E 0
15.05.2019 20:00:00 -0,7 -0,7 35 19 - - E 0
15.05.2019 19:00:00 -0,9 -0,9 39 21 - - ESE 0
15.05.2019 18:00:00 -1,2 -1,2 37 20 - - ESE 0
15.05.2019 17:00:00 -1,4 -1,4 31 17 - - ESE 0
15.05.2019 16:00:00 -1,1 -1,1 37 20 - - ESE -
15.05.2019 15:00:00 -1,1 -1,1 34 18 - - ESE 0
15.05.2019 14:00:00 -1,4 -1,4 28 15 - - ESE 0
15.05.2019 13:00:00 -1,6 -1,7 24 13 - - ESE 0
15.05.2019 12:00:00 -0,2 -0,5 15 8 - - ESE -
15.05.2019 11:00:00 -0,1 -0,7 5 3 - - N 0
15.05.2019 10:00:00 -0,4 -0,9 8 4 - - N -
15.05.2019 09:00:00 -0,2 -0,9 4 2 - - N -
15.05.2019 08:00:00 -1,0 -1,1 4 2 - - N 6
15.05.2019 07:00:00 -1,5 -1,7 4 2 - - N -
15.05.2019 06:00:00 -1,7 -1,7 4 2 - - N -
15.05.2019 05:00:00 -2,6 -3,5 8 4 - - SSW 0

tt = temperature
td = dewpoint
ff = wind speed
fx = gusts
dd = wind direction
sd = sunshine duration

Next stations